King Salmon, AK (99549)

12:09 AM AKDT on August 25, 2016 (GMT -0800)
Port Heiden | | Change Station

Elev 95 ft 56.96 °N, 158.63 °W | Updated 13 minutes ago

Clear
Clear
57 °F
Feels Like 57 °F
N
12
Wind Variable Wind from SSE

Today
High -- | Low -- °F
--% Chance of Precip.
Yesterday
High -- | Low -- °F
Precip. -- in
Pressure 30.21 in
Visibility 10.0 miles
Clouds Clear
Dew Point 54 °F
Humidity 89%
Rainfall 0.04 in
Snow Depth Not available.
7:24 AM 9:47 PM
Waning Gibbous, 48% visible
METAR PAPH 250756Z AUTO 16010KT 10SM CLR 14/12 A3020 RMK AO2 SLP229 T01390122 401830117
Pressure 30.21 in
Visibility 10.0 miles
Clouds Clear
Dew Point 54 °F
Humidity 89%
Rainfall 0.04 in
Snow Depth Not available.
7:24 AM 9:47 PM
Waning Gibbous, 48% visible
METAR PAPH 250756Z AUTO 16010KT 10SM CLR 14/12 A3020 RMK AO2 SLP229 T01390122 401830117

10-Day Weather Forecast

Almanac

Astronomy

Aug. 25, 2016 Rise Set
Actual Time
Civil Twilight
Nautical Twilight
Astronomical Twilight
Moon
Length of Visible Light
Length of Day
Tomorrow will be .
, % of the Moon is Illuminated

Today's Extremes

State Highs State Lows

Community

WunderPhotos

Upload Photos

1,934,814 photos uploaded!

WunderBlog® & News

Nearby

Air Quality

  Air Quality AQ Index Pollutant
Not available.

Snow Depth

Station Depth Elevation

Earthquake Activity

City Distance Mag. Time & Date
Minimum magnitude displayed is 2.5.

Coastal Water Temperatures

Place Temperature

Stations

Nearby Weather Stations

Station Location Temp. Windchill Dew Point Humidity Wind Precip. Elev Updated Type
                   

Watches & Warnings

There are currently no watches in effect.